createdAt,value
2019-04-20T00:01:57.191Z,9.78
2019-04-20T00:04:29.002Z,9.76
2019-04-20T00:06:56.473Z,9.72
2019-04-20T00:09:31.350Z,9.67
2019-04-20T00:12:07.205Z,9.62
2019-04-20T00:14:32.071Z,9.48
2019-04-20T00:17:01.032Z,9.40
2019-04-20T00:19:37.470Z,9.36
2019-04-20T00:22:10.574Z,9.33
2019-04-20T00:24:43.880Z,9.34
2019-04-20T00:27:40.227Z,9.33
2019-04-20T00:30:00.135Z,9.27
2019-04-20T00:32:29.718Z,9.32
2019-04-20T00:34:48.935Z,9.37
2019-04-20T00:37:19.261Z,9.42
2019-04-20T00:39:48.913Z,9.54
2019-04-20T00:42:19.813Z,9.38
2019-04-20T00:45:00.068Z,9.43
2019-04-20T00:47:34.833Z,9.52
2019-04-20T00:50:09.215Z,9.50
2019-04-20T00:52:32.929Z,9.39
2019-04-20T00:54:55.841Z,9.36
2019-04-20T00:57:39.416Z,9.18
2019-04-20T01:00:16.411Z,9.24
2019-04-20T01:02:42.287Z,9.22
2019-04-20T01:05:18.102Z,9.33
2019-04-20T01:07:49.572Z,9.35
2019-04-20T01:10:17.295Z,9.58
2019-04-20T01:12:47.495Z,9.59
2019-04-20T01:15:29.035Z,9.64
2019-04-20T01:17:49.703Z,9.71
2019-04-20T01:20:19.193Z,9.61
2019-04-20T01:22:55.751Z,9.67
2019-04-20T01:25:28.136Z,9.63
2019-04-20T01:28:10.249Z,9.59
2019-04-20T01:30:30.290Z,9.60
2019-04-20T01:33:08.884Z,9.43
2019-04-20T01:35:45.009Z,9.52
2019-04-20T01:38:16.897Z,9.62
2019-04-20T01:40:27.557Z,9.49
2019-04-20T01:42:57.299Z,9.42
2019-04-20T01:45:31.169Z,9.36
2019-04-20T01:48:00.926Z,9.46
2019-04-20T01:50:33.061Z,9.40
2019-04-20T01:53:10.117Z,9.43
2019-04-20T01:55:49.006Z,9.52
2019-04-20T01:58:30.255Z,9.39
2019-04-20T02:01:00.810Z,9.38
2019-04-20T02:03:58.894Z,9.23
2019-04-20T02:06:30.045Z,9.23
2019-04-20T02:09:06.480Z,9.35
2019-04-20T02:11:36.206Z,9.18
2019-04-20T02:14:05.615Z,9.17
2019-04-20T02:16:39.174Z,9.02
2019-04-20T02:19:19.569Z,9.24
2019-04-20T02:21:51.985Z,9.36
2019-04-20T02:24:11.003Z,9.40
2019-04-20T02:26:40.891Z,9.37
2019-04-20T02:29:37.467Z,9.50
2019-04-20T02:32:19.720Z,9.57
2019-04-20T02:34:59.863Z,9.51
2019-04-20T02:42:46.279Z,9.36
2019-04-20T02:47:43.629Z,9.33
2019-04-20T02:50:15.667Z,9.35
2019-04-20T02:52:48.913Z,9.37
2019-04-20T02:57:58.538Z,9.25
2019-04-20T03:00:24.012Z,9.25
2019-04-20T03:02:33.741Z,9.25
2019-04-20T03:05:00.195Z,9.31
2019-04-20T03:07:30.388Z,9.27
2019-04-20T03:10:08.413Z,9.31
2019-04-20T03:12:59.714Z,9.18
2019-04-20T03:15:02.856Z,9.20
2019-04-20T03:17:46.371Z,9.30
2019-04-20T03:20:13.805Z,9.28
2019-04-20T03:23:08.285Z,9.20
2019-04-20T03:25:22.559Z,9.06
2019-04-20T03:28:00.928Z,9.15
2019-04-20T03:31:21.018Z,9.02
2019-04-20T03:33:30.923Z,9.01
2019-04-20T03:36:00.129Z,9.10
2019-04-20T03:38:16.900Z,9.09
2019-04-20T03:40:41.111Z,9.06
2019-04-20T03:43:02.003Z,9.18
2019-04-20T03:45:41.220Z,9.22
2019-04-20T03:48:12.565Z,9.19
2019-04-20T03:50:51.133Z,9.24
2019-04-20T03:53:39.807Z,9.25
2019-04-20T03:56:27.973Z,9.17
2019-04-20T03:59:11.493Z,9.22
2019-04-20T04:02:14.930Z,9.28
2019-04-20T04:04:37.195Z,9.35
2019-04-20T04:06:51.741Z,9.49
2019-04-20T04:09:29.213Z,9.63
2019-04-20T04:12:00.214Z,9.69
2019-04-20T04:14:19.867Z,9.75
2019-04-20T04:16:54.151Z,9.83
2019-04-20T04:19:25.215Z,9.88
2019-04-20T04:22:07.826Z,9.94
2019-04-20T04:24:31.461Z,9.95
2019-04-20T04:27:06.977Z,9.72
2019-04-20T04:29:47.172Z,9.82
2019-04-20T04:32:22.248Z,10.02
2019-04-20T04:34:47.822Z,10.19
2019-04-20T04:37:19.048Z,10.31
2019-04-20T04:39:48.458Z,10.38
2019-04-20T04:42:16.910Z,10.46
2019-04-20T04:44:44.750Z,10.52
2019-04-20T04:47:07.049Z,10.55
2019-04-20T04:49:40.063Z,10.58
2019-04-20T04:52:12.672Z,10.62
2019-04-20T04:54:48.413Z,10.59
2019-04-20T04:57:09.528Z,10.56
2019-04-20T04:59:40.298Z,10.60
2019-04-20T05:02:10.137Z,10.54
2019-04-20T05:05:17.389Z,10.66
2019-04-20T05:07:43.864Z,10.77
2019-04-20T05:10:01.349Z,10.83
2019-04-20T05:12:33.559Z,10.86
2019-04-20T05:15:10.114Z,10.92
2019-04-20T05:17:53.310Z,10.41
2019-04-20T05:20:22.002Z,10.56
2019-04-20T05:23:15.386Z,10.66
2019-04-20T05:26:03.761Z,10.68
2019-04-20T05:28:24.163Z,11.01
2019-04-20T05:30:46.869Z,11.09
2019-04-20T05:33:25.477Z,11.05
2019-04-20T05:36:05.643Z,10.97
2019-04-20T05:38:41.482Z,11.03
2019-04-20T05:41:07.042Z,11.20
2019-04-20T05:43:43.155Z,11.17
2019-04-20T05:46:22.090Z,11.12
2019-04-20T05:48:50.867Z,10.96
2019-04-20T05:51:25.444Z,10.58
2019-04-20T05:53:53.289Z,10.80
2019-04-20T05:56:26.753Z,10.76
2019-04-20T05:58:56.427Z,10.92
2019-04-20T06:01:29.467Z,10.60
2019-04-20T06:03:55.464Z,10.52
2019-04-20T06:06:28.918Z,10.72
2019-04-20T06:09:06.415Z,10.61
2019-04-20T06:11:32.946Z,10.59
2019-04-20T06:14:10.127Z,10.70
2019-04-20T06:17:16.088Z,10.84
2019-04-20T06:19:42.169Z,10.87
2019-04-20T06:22:36.483Z,11.06
2019-04-20T06:28:00.998Z,11.11
2019-04-20T06:30:26.290Z,11.51
2019-04-20T06:33:55.250Z,11.64
2019-04-20T06:36:29.468Z,11.80
2019-04-20T06:41:26.504Z,12.12
2019-04-20T06:43:45.993Z,12.33
2019-04-20T06:46:14.833Z,12.42
2019-04-20T06:48:47.065Z,12.56
2019-04-20T06:51:24.414Z,12.52
2019-04-20T06:54:00.589Z,12.48
2019-04-20T06:56:42.641Z,12.43
2019-04-20T06:59:21.058Z,12.13
2019-04-20T07:01:48.962Z,12.51
2019-04-20T07:04:35.610Z,12.65
2019-04-20T07:06:53.161Z,12.83
2019-04-20T07:09:26.283Z,13.04
2019-04-20T07:11:46.468Z,13.20
2019-04-20T07:14:05.065Z,13.27
2019-04-20T07:17:24.414Z,13.48
2019-04-20T07:20:05.996Z,13.66
2019-04-20T07:22:46.532Z,13.78
2019-04-20T07:25:16.015Z,14.13
2019-04-20T07:27:49.689Z,14.27
2019-04-20T07:30:16.571Z,14.46
2019-04-20T07:32:52.448Z,14.85
2019-04-20T07:35:23.269Z,15.02
2019-04-20T07:42:59.857Z,15.10
2019-04-20T07:45:32.029Z,14.83
2019-04-20T07:48:01.607Z,14.80
2019-04-20T07:50:25.222Z,14.10
2019-04-20T07:52:51.133Z,13.47
2019-04-20T07:55:37.631Z,13.24
2019-04-20T07:57:57.908Z,13.43
2019-04-20T08:00:48.612Z,13.47
2019-04-20T08:03:33.371Z,13.60
2019-04-20T08:06:02.441Z,13.73
2019-04-20T08:08:37.699Z,13.98
2019-04-20T08:11:13.771Z,13.98
2019-04-20T08:13:51.313Z,14.23
2019-04-20T08:16:27.690Z,13.72
2019-04-20T08:18:55.193Z,13.60
2019-04-20T08:21:25.554Z,13.72
2019-04-20T08:23:48.872Z,14.14
2019-04-20T08:26:11.384Z,14.67
2019-04-20T08:29:00.178Z,15.12
2019-04-20T08:32:04.544Z,15.62
2019-04-20T08:34:43.181Z,15.98
2019-04-20T08:37:05.961Z,15.46
2019-04-20T08:42:11.576Z,14.84
2019-04-20T08:44:59.868Z,14.95
2019-04-20T08:47:29.184Z,14.65
2019-04-20T08:55:19.865Z,16.31
2019-04-20T08:57:33.597Z,15.34
2019-04-20T09:00:08.575Z,15.16
2019-04-20T09:02:41.252Z,14.60
2019-04-20T09:05:28.116Z,14.91
2019-04-20T09:07:55.378Z,14.68
2019-04-20T09:10:34.453Z,14.45
2019-04-20T09:12:57.248Z,14.41
2019-04-20T09:15:16.924Z,14.48
2019-04-20T09:18:22.775Z,14.51
2019-04-20T09:20:53.814Z,14.06
2019-04-20T09:23:35.394Z,13.76
2019-04-20T09:26:04.864Z,13.55
2019-04-20T09:28:33.441Z,12.89
2019-04-20T09:31:11.890Z,12.51
2019-04-20T09:34:14.407Z,11.89
2019-04-20T09:37:01.160Z,11.29
2019-04-20T09:40:09.315Z,10.84
2019-04-20T09:42:22.644Z,10.87
2019-04-20T09:44:56.223Z,11.21
2019-04-20T09:47:33.835Z,11.80
2019-04-20T09:50:08.956Z,12.34
2019-04-20T09:52:48.194Z,12.76
2019-04-20T09:55:10.920Z,13.21
2019-04-20T09:57:50.301Z,13.36
2019-04-20T10:00:15.521Z,13.71
2019-04-20T10:02:35.942Z,14.12
2019-04-20T10:05:03.487Z,14.54
2019-04-20T10:07:35.640Z,14.71
2019-04-20T10:10:18.828Z,14.67
2019-04-20T10:12:36.015Z,14.74
2019-04-20T10:15:13.852Z,14.69
2019-04-20T10:17:41.506Z,14.75
2019-04-20T10:20:19.445Z,14.52
2019-04-20T10:22:42.594Z,14.82
2019-04-20T10:25:12.856Z,15.14
2019-04-20T10:27:43.581Z,15.55
2019-04-20T10:30:14.594Z,14.99
2019-04-20T10:32:47.231Z,14.85
2019-04-20T10:35:18.570Z,15.02
2019-04-20T10:37:53.565Z,14.99
2019-04-20T10:40:39.305Z,14.91
2019-04-20T10:42:58.194Z,15.02
2019-04-20T10:45:26.775Z,15.17
2019-04-20T10:47:56.995Z,15.25
2019-04-20T10:50:27.166Z,15.26
2019-04-20T10:52:59.538Z,14.38
2019-04-20T10:55:29.405Z,14.16
2019-04-20T10:57:59.721Z,14.04
2019-04-20T11:00:57.774Z,14.14
2019-04-20T11:03:27.278Z,14.25
2019-04-20T11:05:56.866Z,14.60
2019-04-20T11:08:26.622Z,14.63
2019-04-20T11:11:08.380Z,14.75
2019-04-20T11:13:27.674Z,14.94
2019-04-20T11:15:57.348Z,15.09
2019-04-20T11:18:27.342Z,15.36
2019-04-20T11:20:57.471Z,15.84
2019-04-20T11:23:26.960Z,15.93
2019-04-20T11:25:56.468Z,15.64
2019-04-20T11:28:26.262Z,15.63
2019-04-20T11:30:56.308Z,15.36
2019-04-20T11:33:25.746Z,15.30
2019-04-20T11:35:55.260Z,15.11
2019-04-20T11:38:25.996Z,14.92
2019-04-20T11:41:09.980Z,14.71
2019-04-20T11:43:26.692Z,14.51
2019-04-20T11:45:56.517Z,14.60
2019-04-20T11:48:27.394Z,14.72
2019-04-20T11:50:57.912Z,14.84
2019-04-20T11:53:28.589Z,15.16
2019-04-20T11:56:00.452Z,15.23
2019-04-20T11:58:30.421Z,15.32
2019-04-20T12:01:12.176Z,15.61
2019-04-20T12:03:47.875Z,16.08
2019-04-20T12:06:08.683Z,16.51
2019-04-20T12:08:40.260Z,17.00
2019-04-20T12:11:23.002Z,17.34
2019-04-20T12:13:40.756Z,17.57
2019-04-20T12:16:10.290Z,17.51
2019-04-20T12:18:39.783Z,17.11
2019-04-20T12:21:10.541Z,17.33
2019-04-20T12:23:40.374Z,17.56
2019-04-20T12:26:10.840Z,17.56
2019-04-20T12:28:40.360Z,17.53
2019-04-20T12:31:14.733Z,17.33
2019-04-20T12:33:42.244Z,16.44
2019-04-20T12:36:12.322Z,16.14
2019-04-20T12:38:43.191Z,16.36
2019-04-20T12:41:14.443Z,16.43
2019-04-20T12:43:45.571Z,16.23
2019-04-20T12:46:18.203Z,16.58
2019-04-20T12:48:47.421Z,16.73
2019-04-20T12:51:17.526Z,16.94
2019-04-20T12:53:48.455Z,16.94
2019-04-20T12:56:18.195Z,16.90
2019-04-20T12:58:47.690Z,17.13
2019-04-20T13:01:20.179Z,17.28
2019-04-20T13:03:49.733Z,17.17
2019-04-20T13:06:19.594Z,17.04
2019-04-20T13:08:54.806Z,17.00
2019-04-20T13:11:26.694Z,16.80
2019-04-20T13:14:30.706Z,16.95
2019-04-20T13:17:00.324Z,17.18
2019-04-20T13:19:29.952Z,17.30
2019-04-20T13:22:01.090Z,17.18
2019-04-20T13:24:32.210Z,17.08
2019-04-20T13:27:02.864Z,17.02
2019-04-20T13:29:33.125Z,16.89
2019-04-20T13:32:02.725Z,16.83
2019-04-20T13:34:32.155Z,16.66
2019-04-20T13:37:02.274Z,16.35
2019-04-20T13:39:33.051Z,16.01
2019-04-20T13:42:10.335Z,16.28
2019-04-20T13:44:34.945Z,15.96
2019-04-20T13:47:05.187Z,16.13
2019-04-20T13:49:34.568Z,16.38
2019-04-20T13:52:06.781Z,15.75
2019-04-20T13:54:37.644Z,15.16
2019-04-20T13:57:08.134Z,15.28
2019-04-20T13:59:46.306Z,15.24
2019-04-20T14:02:27.616Z,15.40
2019-04-20T14:05:00.303Z,15.54
2019-04-20T14:07:31.414Z,15.29
2019-04-20T14:10:01.757Z,14.95
2019-04-20T14:12:37.161Z,14.36
2019-04-20T14:15:03.024Z,14.25
2019-04-20T14:17:32.984Z,14.05
2019-04-20T14:20:07.417Z,13.73
2019-04-20T14:22:33.798Z,13.35
2019-04-20T14:25:03.353Z,13.43
2019-04-20T14:27:32.979Z,13.19
2019-04-20T14:30:03.492Z,13.19
2019-04-20T14:32:32.915Z,13.08
2019-04-20T14:35:03.099Z,13.01
2019-04-20T14:37:33.009Z,12.97
2019-04-20T14:40:04.193Z,12.86
2019-04-20T14:42:42.777Z,12.86
2019-04-20T14:45:09.030Z,12.73
2019-04-20T14:47:39.545Z,12.86
2019-04-20T14:50:11.853Z,12.87
2019-04-20T14:52:41.793Z,12.89
2019-04-20T14:55:17.227Z,13.15
2019-04-20T14:57:45.834Z,13.22
2019-04-20T15:00:29.940Z,13.37
2019-04-20T15:03:04.071Z,13.37
2019-04-20T15:05:33.456Z,13.39
2019-04-20T15:08:02.981Z,13.50
2019-04-20T15:10:33.002Z,13.57
2019-04-20T15:13:04.682Z,13.62
2019-04-20T15:15:36.726Z,13.64
2019-04-20T15:18:09.442Z,13.59
2019-04-20T15:20:43.696Z,13.44
2019-04-20T15:23:31.122Z,13.40
2019-04-20T15:26:02.355Z,13.45
2019-04-20T15:28:32.460Z,13.40
2019-04-20T15:31:02.460Z,13.43
2019-04-20T15:33:32.809Z,13.39
2019-04-20T15:36:04.270Z,13.36
2019-04-20T15:38:35.370Z,13.25
2019-04-20T15:41:06.914Z,13.21
2019-04-20T15:43:37.441Z,13.23
2019-04-20T15:46:07.636Z,13.38
2019-04-20T15:48:37.772Z,13.41
2019-04-20T15:51:08.006Z,13.46
2019-04-20T15:53:37.767Z,13.62
2019-04-20T15:56:09.545Z,13.69
2019-04-20T15:58:38.757Z,13.69
2019-04-20T16:01:10.257Z,13.72
2019-04-20T16:03:47.739Z,13.61
2019-04-20T16:06:17.219Z,13.66
2019-04-20T16:08:50.286Z,13.71
2019-04-20T16:11:21.424Z,13.62
2019-04-20T16:13:53.838Z,13.62
2019-04-20T16:16:23.758Z,13.60
2019-04-20T16:18:54.896Z,13.65
2019-04-20T16:21:28.057Z,13.52
2019-04-20T16:24:06.662Z,13.44
2019-04-20T16:26:44.537Z,13.29
2019-04-20T16:29:15.385Z,13.22
2019-04-20T16:31:47.215Z,13.14
2019-04-20T16:34:16.078Z,13.01
2019-04-20T16:36:46.362Z,13.02
2019-04-20T16:39:16.508Z,12.94
2019-04-20T16:41:46.510Z,12.81
2019-04-20T16:44:17.442Z,12.74
2019-04-20T16:46:48.054Z,12.66
2019-04-20T16:49:17.456Z,12.53
2019-04-20T16:51:49.323Z,12.44
2019-04-20T16:54:19.605Z,12.31
2019-04-20T16:56:49.312Z,12.17
2019-04-20T16:59:19.599Z,12.07
2019-04-20T17:01:54.000Z,11.94
2019-04-20T17:04:28.303Z,11.92
2019-04-20T17:07:16.589Z,11.80
2019-04-20T17:09:47.463Z,11.70
2019-04-20T17:12:17.693Z,11.58
2019-04-20T17:14:47.688Z,11.51
2019-04-20T17:17:17.741Z,11.40
2019-04-20T17:19:47.441Z,11.30
2019-04-20T17:22:17.250Z,11.21
2019-04-20T17:24:47.291Z,11.10
2019-04-20T17:27:49.150Z,11.03
2019-04-20T17:30:50.743Z,11.03
2019-04-20T17:33:26.089Z,10.91
2019-04-20T17:36:04.519Z,10.84
2019-04-20T17:38:34.741Z,10.85
2019-04-20T17:41:15.666Z,10.90
2019-04-20T17:43:37.103Z,10.88
2019-04-20T17:46:10.390Z,10.94
2019-04-20T17:48:43.238Z,10.92
2019-04-20T17:51:22.386Z,10.99
2019-04-20T17:54:06.423Z,10.93
2019-04-20T17:56:40.278Z,10.80
2019-04-20T17:59:10.367Z,10.64
2019-04-20T18:02:13.148Z,10.55
2019-04-20T18:05:00.987Z,10.46
2019-04-20T18:07:32.461Z,10.40
2019-04-20T18:09:56.478Z,10.34
2019-04-20T18:12:14.126Z,10.25
2019-04-20T18:14:54.728Z,10.17
2019-04-20T18:17:40.256Z,10.11
2019-04-20T18:20:05.240Z,10.03
2019-04-20T18:22:38.375Z,9.97
2019-04-20T18:25:25.486Z,9.93
2019-04-20T18:27:58.688Z,9.83
2019-04-20T18:30:29.795Z,9.76
2019-04-20T18:32:49.354Z,9.73
2019-04-20T18:35:22.522Z,9.68
2019-04-20T18:37:59.290Z,9.65
2019-04-20T18:40:32.379Z,9.64
2019-04-20T18:43:01.727Z,9.57
2019-04-20T18:45:39.689Z,9.51
2019-04-20T18:48:15.820Z,9.46
2019-04-20T18:50:35.603Z,9.43
2019-04-20T18:53:00.059Z,9.40
2019-04-20T18:55:40.926Z,9.33
2019-04-20T18:58:01.519Z,9.32
2019-04-20T19:00:34.415Z,9.36
2019-04-20T19:03:09.638Z,9.32
2019-04-20T19:05:33.836Z,9.28
2019-04-20T19:08:08.300Z,9.22
2019-04-20T19:10:37.982Z,9.21
2019-04-20T19:13:20.237Z,9.13
2019-04-20T19:16:18.611Z,9.08
2019-04-20T19:19:21.999Z,9.04
2019-04-20T19:21:43.782Z,8.93
2019-04-20T19:24:16.883Z,8.96
2019-04-20T19:26:50.867Z,9.05
2019-04-20T19:29:26.442Z,9.13
2019-04-20T19:32:07.277Z,9.08
2019-04-20T19:34:36.415Z,9.08
2019-04-20T19:37:04.084Z,9.03
2019-04-20T19:39:39.688Z,9.03
2019-04-20T19:42:08.178Z,8.96
2019-04-20T19:44:40.775Z,8.88
2019-04-20T19:47:15.603Z,8.85
2019-04-20T19:49:39.337Z,8.78
2019-04-20T19:52:25.263Z,8.77
2019-04-20T19:54:46.742Z,8.79
2019-04-20T19:57:16.229Z,8.77
2019-04-20T19:59:39.943Z,8.73
2019-04-20T20:02:03.661Z,8.70
2019-04-20T20:04:41.373Z,8.74
2019-04-20T20:07:10.778Z,8.66
2019-04-20T20:09:41.537Z,8.58
2019-04-20T20:12:12.277Z,8.58
2019-04-20T20:14:42.979Z,8.48
2019-04-20T20:17:32.928Z,8.47
2019-04-20T20:20:06.844Z,8.37
2019-04-20T20:22:21.584Z,8.22
2019-04-20T20:24:43.118Z,8.19
2019-04-20T20:27:20.825Z,8.23
2019-04-20T20:29:56.959Z,8.22
2019-04-20T20:32:25.649Z,8.12
2019-04-20T20:35:00.025Z,8.05
2019-04-20T20:37:29.588Z,7.95
2019-04-20T20:39:56.981Z,7.90
2019-04-20T20:42:30.505Z,7.83
2019-04-20T20:44:57.679Z,7.74
2019-04-20T20:47:55.110Z,7.69
2019-04-20T20:50:20.355Z,7.66
2019-04-20T20:52:36.901Z,7.67
2019-04-20T20:55:03.805Z,7.71
2019-04-20T20:57:38.591Z,7.66
2019-04-20T21:00:03.647Z,7.73
2019-04-20T21:02:44.104Z,7.71
2019-04-20T21:05:01.750Z,7.75
2019-04-20T21:07:31.451Z,7.80
2019-04-20T21:10:00.869Z,7.82
2019-04-20T21:12:30.597Z,7.73
2019-04-20T21:15:06.912Z,7.70
2019-04-20T21:17:41.703Z,7.67
2019-04-20T21:20:15.743Z,7.79
2019-04-20T21:22:57.513Z,7.72
2019-04-20T21:25:07.946Z,7.59
2019-04-20T21:27:37.330Z,7.58
2019-04-20T21:30:15.604Z,7.69
2019-04-20T21:32:45.657Z,7.74
2019-04-20T21:35:13.866Z,7.74
2019-04-20T21:37:48.161Z,7.74
2019-04-20T21:40:23.544Z,7.66
2019-04-20T21:42:51.726Z,7.56
2019-04-20T21:45:23.022Z,7.53
2019-04-20T21:47:48.264Z,7.61
2019-04-20T21:50:34.423Z,7.61
2019-04-20T21:52:53.368Z,7.58
2019-04-20T21:55:21.762Z,7.58
2019-04-20T21:57:55.422Z,7.70
2019-04-20T22:00:45.652Z,7.74
2019-04-20T22:03:13.698Z,7.84
2019-04-20T22:05:44.264Z,7.78
2019-04-20T22:08:16.070Z,7.79
2019-04-20T22:10:45.010Z,7.74
2019-04-20T22:13:19.386Z,7.63
2019-04-20T22:15:55.467Z,7.51
2019-04-20T22:18:21.337Z,7.54
2019-04-20T22:20:57.446Z,7.49
2019-04-20T22:23:36.392Z,7.57
2019-04-20T22:26:04.151Z,7.56
2019-04-20T22:28:22.347Z,7.56
2019-04-20T22:30:51.791Z,7.51
2019-04-20T22:33:39.683Z,7.47
2019-04-20T22:36:09.252Z,7.37
2019-04-20T22:39:07.481Z,7.32
2019-04-20T22:41:53.654Z,7.32
2019-04-20T22:44:24.504Z,7.30
2019-04-20T22:46:52.563Z,7.31
2019-04-20T22:49:38.864Z,7.24
2019-04-20T22:52:04.145Z,7.24
2019-04-20T22:54:43.315Z,7.23
2019-04-20T22:57:05.770Z,7.27
2019-04-20T22:59:38.462Z,7.26
2019-04-20T23:02:00.575Z,7.28
2019-04-20T23:04:29.253Z,7.25
2019-04-20T23:06:59.135Z,7.23
2019-04-20T23:09:28.916Z,7.21
2019-04-20T23:12:06.046Z,7.19
2019-04-20T23:14:29.425Z,7.12
2019-04-20T23:16:59.836Z,7.08
2019-04-20T23:19:39.269Z,7.00
2019-04-20T23:22:04.913Z,6.98
2019-04-20T23:24:33.067Z,7.03
2019-04-20T23:27:04.456Z,7.06
2019-04-20T23:29:37.949Z,7.03
2019-04-20T23:32:08.359Z,6.96
2019-04-20T23:34:39.007Z,6.90
2019-04-20T23:37:16.224Z,6.92
2019-04-20T23:39:42.887Z,6.88
2019-04-20T23:42:13.032Z,6.82
2019-04-20T23:44:58.049Z,6.77
2019-04-20T23:47:34.196Z,6.78
2019-04-20T23:50:19.587Z,6.81
2019-04-20T23:53:02.392Z,6.75
2019-04-20T23:55:12.983Z,6.72
2019-04-20T23:57:41.928Z,6.63
